sensor_id;sensor_type;location;lat;lon;timestamp;pressure;altitude;pressure_sealevel;temperature;humidity
43741;BME280;29352;48.708;9.290;2023-02-12T00:00:43;99802.44;;;-2.39;76.17
43741;BME280;29352;48.708;9.290;2023-02-12T00:03:09;99810.00;;;-2.96;77.59
43741;BME280;29352;48.708;9.290;2023-02-12T00:05:39;99802.75;;;-3.06;78.29
43741;BME280;29352;48.708;9.290;2023-02-12T00:08:06;99801.38;;;-2.50;76.57
43741;BME280;29352;48.708;9.290;2023-02-12T00:10:32;99797.31;;;-2.56;76.53
43741;BME280;29352;48.708;9.290;2023-02-12T00:12:58;99806.94;;;-2.41;76.23
43741;BME280;29352;48.708;9.290;2023-02-12T00:15:23;99810.38;;;-2.40;76.10
43741;BME280;29352;48.708;9.290;2023-02-12T00:17:48;99812.78;;;-2.83;77.46
43741;BME280;29352;48.708;9.290;2023-02-12T00:20:14;99809.06;;;-2.63;76.62
43741;BME280;29352;48.708;9.290;2023-02-12T00:22:39;99807.28;;;-2.47;76.18
43741;BME280;29352;48.708;9.290;2023-02-12T00:25:05;99814.75;;;-2.87;76.93
43741;BME280;29352;48.708;9.290;2023-02-12T00:27:32;99809.16;;;-2.80;76.62
43741;BME280;29352;48.708;9.290;2023-02-12T00:29:58;99818.09;;;-2.85;77.41
43741;BME280;29352;48.708;9.290;2023-02-12T00:32:23;99817.69;;;-2.93;77.67
43741;BME280;29352;48.708;9.290;2023-02-12T00:34:49;99813.03;;;-2.72;77.06
43741;BME280;29352;48.708;9.290;2023-02-12T00:37:15;99803.44;;;-2.71;77.43
43741;BME280;29352;48.708;9.290;2023-02-12T00:39:43;99812.19;;;-2.72;76.89
43741;BME280;29352;48.708;9.290;2023-02-12T00:42:08;99813.00;;;-2.56;76.63
43741;BME280;29352;48.708;9.290;2023-02-12T00:44:34;99806.59;;;-2.50;76.29
43741;BME280;29352;48.708;9.290;2023-02-12T00:46:59;99811.06;;;-2.37;76.34
43741;BME280;29352;48.708;9.290;2023-02-12T00:49:30;99827.31;;;-2.31;76.01
43741;BME280;29352;48.708;9.290;2023-02-12T00:52:00;99820.53;;;-2.50;76.28
43741;BME280;29352;48.708;9.290;2023-02-12T00:54:27;99816.84;;;-2.16;75.93
43741;BME280;29352;48.708;9.290;2023-02-12T00:56:54;99821.16;;;-2.00;74.98
43741;BME280;29352;48.708;9.290;2023-02-12T00:59:23;99817.53;;;-1.98;74.92
43741;BME280;29352;48.708;9.290;2023-02-12T01:01:53;99823.34;;;-2.23;75.79
43741;BME280;29352;48.708;9.290;2023-02-12T01:04:20;99827.53;;;-2.66;77.06
43741;BME280;29352;48.708;9.290;2023-02-12T01:06:46;99828.13;;;-2.77;77.25
43741;BME280;29352;48.708;9.290;2023-02-12T01:09:12;99832.59;;;-2.79;77.89
43741;BME280;29352;48.708;9.290;2023-02-12T01:11:37;99821.97;;;-2.92;77.90
43741;BME280;29352;48.708;9.290;2023-02-12T01:14:03;99828.88;;;-2.75;77.68
43741;BME280;29352;48.708;9.290;2023-02-12T01:16:29;99816.91;;;-2.95;78.23
43741;BME280;29352;48.708;9.290;2023-02-12T01:18:58;99818.78;;;-2.65;77.68
43741;BME280;29352;48.708;9.290;2023-02-12T01:21:26;99824.81;;;-3.12;79.02
43741;BME280;29352;48.708;9.290;2023-02-12T01:23:54;99824.41;;;-2.89;77.82
43741;BME280;29352;48.708;9.290;2023-02-12T01:26:20;99823.19;;;-2.35;76.69
43741;BME280;29352;48.708;9.290;2023-02-12T01:28:55;99813.03;;;-2.10;75.36
43741;BME280;29352;48.708;9.290;2023-02-12T01:31:25;99819.19;;;-2.57;76.27
43741;BME280;29352;48.708;9.290;2023-02-12T01:33:53;99815.28;;;-2.50;76.82
43741;BME280;29352;48.708;9.290;2023-02-12T01:36:21;99824.50;;;-2.74;77.07
43741;BME280;29352;48.708;9.290;2023-02-12T01:38:49;99828.38;;;-2.81;78.10
43741;BME280;29352;48.708;9.290;2023-02-12T01:41:18;99824.31;;;-3.03;78.10
43741;BME280;29352;48.708;9.290;2023-02-12T01:44:02;99832.97;;;-3.18;78.57
43741;BME280;29352;48.708;9.290;2023-02-12T01:46:30;99815.84;;;-3.57;80.24
43741;BME280;29352;48.708;9.290;2023-02-12T01:48:56;99818.34;;;-3.71;80.51
43741;BME280;29352;48.708;9.290;2023-02-12T01:51:23;99822.72;;;-3.39;79.91
43741;BME280;29352;48.708;9.290;2023-02-12T01:53:55;99813.69;;;-3.16;79.01
43741;BME280;29352;48.708;9.290;2023-02-12T01:56:27;99820.97;;;-3.38;79.23
43741;BME280;29352;48.708;9.290;2023-02-12T01:58:54;99820.13;;;-3.39;80.21
43741;BME280;29352;48.708;9.290;2023-02-12T02:01:26;99808.25;;;-3.44;79.82
43741;BME280;29352;48.708;9.290;2023-02-12T02:03:58;99814.88;;;-3.39;79.12
43741;BME280;29352;48.708;9.290;2023-02-12T02:06:33;99806.78;;;-3.17;78.62
43741;BME280;29352;48.708;9.290;2023-02-12T02:09:06;99814.78;;;-3.20;78.31
43741;BME280;29352;48.708;9.290;2023-02-12T02:11:32;99812.75;;;-3.15;77.53
43741;BME280;29352;48.708;9.290;2023-02-12T02:14:17;99808.81;;;-2.90;77.25
43741;BME280;29352;48.708;9.290;2023-02-12T02:20:24;99815.31;;;-2.81;76.45
43741;BME280;29352;48.708;9.290;2023-02-12T02:32:07;99793.59;;;-2.36;74.95
43741;BME280;29352;48.708;9.290;2023-02-12T02:37:41;99796.09;;;-2.96;77.09
43741;BME280;29352;48.708;9.290;2023-02-12T02:40:17;99796.22;;;-3.15;77.35
43741;BME280;29352;48.708;9.290;2023-02-12T02:45:25;99789.91;;;-3.11;77.98
43741;BME280;29352;48.708;9.290;2023-02-12T02:48:40;99782.50;;;-2.87;77.22
43741;BME280;29352;48.708;9.290;2023-02-12T02:51:15;99780.19;;;-3.41;78.76
43741;BME280;29352;48.708;9.290;2023-02-12T02:53:54;99792.94;;;-3.19;78.29
43741;BME280;29352;48.708;9.290;2023-02-12T02:56:33;99791.63;;;-3.10;77.71
43741;BME280;29352;48.708;9.290;2023-02-12T02:59:11;99780.31;;;-2.95;77.90
43741;BME280;29352;48.708;9.290;2023-02-12T03:01:53;99785.72;;;-2.98;78.09
43741;BME280;29352;48.708;9.290;2023-02-12T03:04:40;99786.22;;;-3.07;78.32
43741;BME280;29352;48.708;9.290;2023-02-12T03:09:49;99780.25;;;-3.09;77.63
43741;BME280;29352;48.708;9.290;2023-02-12T03:12:36;99791.72;;;-2.96;77.33
43741;BME280;29352;48.708;9.290;2023-02-12T03:15:18;99794.69;;;-3.35;78.35
43741;BME280;29352;48.708;9.290;2023-02-12T03:17:52;99798.53;;;-3.42;79.31
43741;BME280;29352;48.708;9.290;2023-02-12T03:20:25;99795.66;;;-2.89;77.33
43741;BME280;29352;48.708;9.290;2023-02-12T03:22:59;99799.47;;;-2.78;77.44
43741;BME280;29352;48.708;9.290;2023-02-12T03:25:47;99797.59;;;-3.08;77.55
43741;BME280;29352;48.708;9.290;2023-02-12T03:28:26;99803.38;;;-3.68;79.70
43741;BME280;29352;48.708;9.290;2023-02-12T03:31:09;99801.13;;;-3.58;79.86
43741;BME280;29352;48.708;9.290;2023-02-12T03:33:48;99802.78;;;-3.40;79.23
43741;BME280;29352;48.708;9.290;2023-02-12T03:39:08;99796.84;;;-3.10;79.06
43741;BME280;29352;48.708;9.290;2023-02-12T03:47:36;99799.53;;;-3.27;78.41
43741;BME280;29352;48.708;9.290;2023-02-12T03:52:54;99804.38;;;-3.21;78.84
43741;BME280;29352;48.708;9.290;2023-02-12T03:55:20;99806.78;;;-3.01;78.08
43741;BME280;29352;48.708;9.290;2023-02-12T03:57:54;99803.44;;;-3.03;77.81
43741;BME280;29352;48.708;9.290;2023-02-12T04:00:26;99805.41;;;-3.57;79.93
43741;BME280;29352;48.708;9.290;2023-02-12T04:02:53;99805.75;;;-3.30;79.22
43741;BME280;29352;48.708;9.290;2023-02-12T04:05:23;99811.06;;;-3.31;79.25
43741;BME280;29352;48.708;9.290;2023-02-12T04:07:52;99806.25;;;-3.23;78.97
43741;BME280;29352;48.708;9.290;2023-02-12T04:10:33;99818.75;;;-3.13;78.67
43741;BME280;29352;48.708;9.290;2023-02-12T04:13:33;99812.28;;;-2.74;77.96
43741;BME280;29352;48.708;9.290;2023-02-12T04:16:34;99823.94;;;-2.79;77.23
43741;BME280;29352;48.708;9.290;2023-02-12T04:19:02;99817.84;;;-2.64;76.79
43741;BME280;29352;48.708;9.290;2023-02-12T04:24:49;99816.91;;;-2.63;76.51
43741;BME280;29352;48.708;9.290;2023-02-12T04:27:36;99824.69;;;-2.31;75.29
43741;BME280;29352;48.708;9.290;2023-02-12T04:30:31;99828.03;;;-2.91;76.80
43741;BME280;29352;48.708;9.290;2023-02-12T04:33:02;99824.22;;;-2.70;76.02
43741;BME280;29352;48.708;9.290;2023-02-12T04:35:49;99817.03;;;-3.29;77.39
43741;BME280;29352;48.708;9.290;2023-02-12T04:38:21;99819.53;;;-3.44;78.41
43741;BME280;29352;48.708;9.290;2023-02-12T04:40:53;99826.28;;;-3.40;78.74
43741;BME280;29352;48.708;9.290;2023-02-12T04:43:29;99821.63;;;-3.01;77.69
43741;BME280;29352;48.708;9.290;2023-02-12T04:45:56;99824.47;;;-3.06;76.78
43741;BME280;29352;48.708;9.290;2023-02-12T04:48:22;99821.47;;;-2.51;75.18
43741;BME280;29352;48.708;9.290;2023-02-12T04:50:48;99831.59;;;-3.25;77.45
43741;BME280;29352;48.708;9.290;2023-02-12T04:53:14;99836.69;;;-3.73;80.05
43741;BME280;29352;48.708;9.290;2023-02-12T04:55:39;99834.81;;;-3.53;79.43
43741;BME280;29352;48.708;9.290;2023-02-12T04:58:05;99828.72;;;-3.03;78.12
43741;BME280;29352;48.708;9.290;2023-02-12T05:00:31;99826.22;;;-3.22;77.66
43741;BME280;29352;48.708;9.290;2023-02-12T05:02:56;99830.69;;;-3.24;78.07
43741;BME280;29352;48.708;9.290;2023-02-12T05:05:22;99841.16;;;-3.24;78.61
43741;BME280;29352;48.708;9.290;2023-02-12T05:07:48;99832.75;;;-2.98;77.76
43741;BME280;29352;48.708;9.290;2023-02-12T05:10:14;99833.41;;;-3.10;77.02
43741;BME280;29352;48.708;9.290;2023-02-12T05:12:40;99822.88;;;-2.77;77.03
43741;BME280;29352;48.708;9.290;2023-02-12T05:15:06;99828.78;;;-3.05;77.91
43741;BME280;29352;48.708;9.290;2023-02-12T05:17:32;99831.22;;;-3.18;78.10
43741;BME280;29352;48.708;9.290;2023-02-12T05:19:57;99828.94;;;-3.08;77.83
43741;BME280;29352;48.708;9.290;2023-02-12T05:22:23;99832.25;;;-3.38;78.48
43741;BME280;29352;48.708;9.290;2023-02-12T05:24:48;99831.00;;;-3.30;78.80
43741;BME280;29352;48.708;9.290;2023-02-12T05:27:14;99829.13;;;-2.95;77.78
43741;BME280;29352;48.708;9.290;2023-02-12T05:29:39;99828.03;;;-3.07;77.90
43741;BME280;29352;48.708;9.290;2023-02-12T05:32:05;99823.97;;;-3.13;77.96
43741;BME280;29352;48.708;9.290;2023-02-12T05:34:31;99816.81;;;-3.09;78.23
43741;BME280;29352;48.708;9.290;2023-02-12T05:36:57;99817.16;;;-2.99;78.15
43741;BME280;29352;48.708;9.290;2023-02-12T05:39:22;99830.06;;;-2.96;77.60
43741;BME280;29352;48.708;9.290;2023-02-12T05:41:48;99830.91;;;-2.96;77.52
43741;BME280;29352;48.708;9.290;2023-02-12T05:44:13;99830.69;;;-3.58;79.84
43741;BME280;29352;48.708;9.290;2023-02-12T05:46:40;99827.19;;;-3.41;79.46
43741;BME280;29352;48.708;9.290;2023-02-12T05:49:07;99826.53;;;-3.28;79.17
43741;BME280;29352;48.708;9.290;2023-02-12T05:51:33;99826.88;;;-3.35;78.97
43741;BME280;29352;48.708;9.290;2023-02-12T05:54:01;99833.31;;;-3.24;79.44
43741;BME280;29352;48.708;9.290;2023-02-12T05:56:33;99831.91;;;-3.14;77.92
43741;BME280;29352;48.708;9.290;2023-02-12T05:59:05;99832.47;;;-3.42;78.76
43741;BME280;29352;48.708;9.290;2023-02-12T06:01:35;99826.47;;;-3.77;81.05
43741;BME280;29352;48.708;9.290;2023-02-12T06:04:07;99833.00;;;-3.36;79.59
43741;BME280;29352;48.708;9.290;2023-02-12T06:06:37;99838.97;;;-3.16;78.68
43741;BME280;29352;48.708;9.290;2023-02-12T06:09:06;99834.41;;;-3.13;78.33
43741;BME280;29352;48.708;9.290;2023-02-12T06:11:33;99834.22;;;-3.25;79.14
43741;BME280;29352;48.708;9.290;2023-02-12T06:14:04;99837.97;;;-3.14;77.70
43741;BME280;29352;48.708;9.290;2023-02-12T06:16:32;99830.72;;;-3.09;77.74
43741;BME280;29352;48.708;9.290;2023-02-12T06:19:00;99831.38;;;-3.05;77.70
43741;BME280;29352;48.708;9.290;2023-02-12T06:21:28;99833.22;;;-3.23;77.98
43741;BME280;29352;48.708;9.290;2023-02-12T06:23:54;99831.22;;;-3.18;78.68
43741;BME280;29352;48.708;9.290;2023-02-12T06:26:20;99823.81;;;-2.94;77.16
43741;BME280;29352;48.708;9.290;2023-02-12T06:28:47;99833.53;;;-2.64;76.54
43741;BME280;29352;48.708;9.290;2023-02-12T06:31:17;99844.19;;;-3.16;77.14
43741;BME280;29352;48.708;9.290;2023-02-12T06:33:45;99840.50;;;-2.49;75.77
43741;BME280;29352;48.708;9.290;2023-02-12T06:36:11;99842.81;;;-2.58;75.92
43741;BME280;29352;48.708;9.290;2023-02-12T06:38:36;99847.41;;;-2.95;76.77
43741;BME280;29352;48.708;9.290;2023-02-12T06:41:02;99850.47;;;-2.55;75.70
43741;BME280;29352;48.708;9.290;2023-02-12T06:43:28;99846.75;;;-2.99;76.61
43741;BME280;29352;48.708;9.290;2023-02-12T06:45:54;99852.97;;;-3.01;77.05
43741;BME280;29352;48.708;9.290;2023-02-12T06:48:19;99847.25;;;-2.92;76.89
43741;BME280;29352;48.708;9.290;2023-02-12T06:50:44;99848.63;;;-2.69;76.06
43741;BME280;29352;48.708;9.290;2023-02-12T06:53:10;99848.41;;;-2.98;76.99
43741;BME280;29352;48.708;9.290;2023-02-12T06:55:35;99852.91;;;-2.52;75.93
43741;BME280;29352;48.708;9.290;2023-02-12T06:58:01;99858.72;;;-2.63;75.68
43741;BME280;29352;48.708;9.290;2023-02-12T07:00:26;99857.50;;;-3.05;77.36
43741;BME280;29352;48.708;9.290;2023-02-12T07:02:54;99858.72;;;-2.95;77.77
43741;BME280;29352;48.708;9.290;2023-02-12T07:05:21;99859.41;;;-2.75;77.68
43741;BME280;29352;48.708;9.290;2023-02-12T07:07:47;99871.06;;;-2.65;77.37
43741;BME280;29352;48.708;9.290;2023-02-12T07:10:12;99862.09;;;-2.29;76.38
43741;BME280;29352;48.708;9.290;2023-02-12T07:12:38;99859.97;;;-3.02;78.37
43741;BME280;29352;48.708;9.290;2023-02-12T07:15:04;99863.06;;;-2.62;78.10
43741;BME280;29352;48.708;9.290;2023-02-12T07:17:29;99863.25;;;-2.35;77.37
43741;BME280;29352;48.708;9.290;2023-02-12T07:19:55;99856.31;;;-2.04;76.11
43741;BME280;29352;48.708;9.290;2023-02-12T07:22:21;99860.47;;;-2.16;75.33
43741;BME280;29352;48.708;9.290;2023-02-12T07:24:47;99857.72;;;-1.99;74.25
43741;BME280;29352;48.708;9.290;2023-02-12T07:27:13;99875.78;;;-2.72;76.44
43741;BME280;29352;48.708;9.290;2023-02-12T07:29:39;99872.56;;;-2.45;77.45
43741;BME280;29352;48.708;9.290;2023-02-12T07:32:05;99878.56;;;-2.43;77.17
43741;BME280;29352;48.708;9.290;2023-02-12T07:34:30;99877.19;;;-2.66;77.80
43741;BME280;29352;48.708;9.290;2023-02-12T07:36:56;99875.44;;;-2.50;77.75
43741;BME280;29352;48.708;9.290;2023-02-12T07:39:21;99862.38;;;-2.34;77.80
43741;BME280;29352;48.708;9.290;2023-02-12T07:41:47;99864.38;;;-1.93;75.32
43741;BME280;29352;48.708;9.290;2023-02-12T07:44:12;99869.38;;;-2.04;75.47
43741;BME280;29352;48.708;9.290;2023-02-12T07:46:42;99868.44;;;-1.73;74.85
43741;BME280;29352;48.708;9.290;2023-02-12T07:49:20;99864.72;;;-1.25;72.97
43741;BME280;29352;48.708;9.290;2023-02-12T07:51:47;99857.94;;;-1.87;74.55
43741;BME280;29352;48.708;9.290;2023-02-12T07:54:14;99858.06;;;-1.89;75.33
43741;BME280;29352;48.708;9.290;2023-02-12T07:56:41;99857.75;;;-2.15;75.52
43741;BME280;29352;48.708;9.290;2023-02-12T07:59:11;99858.69;;;-2.00;76.98
43741;BME280;29352;48.708;9.290;2023-02-12T08:01:50;99857.50;;;-1.80;75.04
43741;BME280;29352;48.708;9.290;2023-02-12T08:04:22;99857.97;;;-1.57;74.74
43741;BME280;29352;48.708;9.290;2023-02-12T08:06:51;99857.16;;;-1.44;73.42
43741;BME280;29352;48.708;9.290;2023-02-12T08:09:24;99853.13;;;-1.35;73.17
43741;BME280;29352;48.708;9.290;2023-02-12T08:11:52;99860.53;;;-1.27;73.18
43741;BME280;29352;48.708;9.290;2023-02-12T08:14:19;99860.13;;;-1.21;72.87
43741;BME280;29352;48.708;9.290;2023-02-12T08:16:47;99858.75;;;-1.27;73.11
43741;BME280;29352;48.708;9.290;2023-02-12T08:19:13;99859.31;;;-1.22;73.19
43741;BME280;29352;48.708;9.290;2023-02-12T08:21:40;99860.13;;;-1.21;73.70
43741;BME280;29352;48.708;9.290;2023-02-12T08:24:06;99856.22;;;-1.28;74.42
43741;BME280;29352;48.708;9.290;2023-02-12T08:26:36;99857.69;;;-1.24;74.36
43741;BME280;29352;48.708;9.290;2023-02-12T08:29:08;99864.44;;;-0.91;72.97
43741;BME280;29352;48.708;9.290;2023-02-12T08:31:38;99853.78;;;-0.88;72.64
43741;BME280;29352;48.708;9.290;2023-02-12T08:34:06;99863.50;;;-0.90;72.97
43741;BME280;29352;48.708;9.290;2023-02-12T08:36:39;99856.78;;;-1.23;73.43
43741;BME280;29352;48.708;9.290;2023-02-12T08:39:06;99853.75;;;-0.74;72.70
43741;BME280;29352;48.708;9.290;2023-02-12T08:41:33;99851.22;;;-0.90;72.63
43741;BME280;29352;48.708;9.290;2023-02-12T08:44:01;99853.97;;;-0.91;73.18
43741;BME280;29352;48.708;9.290;2023-02-12T08:46:30;99847.13;;;-1.08;73.40
43741;BME280;29352;48.708;9.290;2023-02-12T08:48:59;99849.00;;;-1.10;73.53
43741;BME280;29352;48.708;9.290;2023-02-12T08:51:32;99846.56;;;-0.43;71.64
43741;BME280;29352;48.708;9.290;2023-02-12T08:54:03;99845.44;;;0.00;71.13
43741;BME280;29352;48.708;9.290;2023-02-12T08:56:33;99852.38;;;0.02;71.08
43741;BME280;29352;48.708;9.290;2023-02-12T08:59:02;99851.91;;;0.22;70.43
43741;BME280;29352;48.708;9.290;2023-02-12T09:01:32;99849.22;;;0.49;69.53
43741;BME280;29352;48.708;9.290;2023-02-12T09:04:00;99848.22;;;0.12;70.65
43741;BME280;29352;48.708;9.290;2023-02-12T09:06:26;99847.22;;;0.65;69.82
43741;BME280;29352;48.708;9.290;2023-02-12T09:08:53;99847.03;;;0.81;68.88
43741;BME280;29352;48.708;9.290;2023-02-12T09:11:22;99848.56;;;0.97;68.88
43741;BME280;29352;48.708;9.290;2023-02-12T09:14:01;99850.28;;;1.34;68.24
43741;BME280;29352;48.708;9.290;2023-02-12T09:16:32;99855.06;;;1.16;68.54
43741;BME280;29352;48.708;9.290;2023-02-12T09:18:59;99851.69;;;1.27;68.22
43741;BME280;29352;48.708;9.290;2023-02-12T09:21:26;99851.44;;;0.68;70.63
43741;BME280;29352;48.708;9.290;2023-02-12T09:23:52;99847.34;;;1.63;68.78
43741;BME280;29352;48.708;9.290;2023-02-12T09:26:20;99844.69;;;1.39;68.66
43741;BME280;29352;48.708;9.290;2023-02-12T09:28:49;99851.06;;;1.84;68.46
43741;BME280;29352;48.708;9.290;2023-02-12T09:31:21;99856.28;;;1.36;69.59
43741;BME280;29352;48.708;9.290;2023-02-12T09:34:02;99846.97;;;2.04;68.12
43741;BME280;29352;48.708;9.290;2023-02-12T09:36:30;99853.03;;;1.57;69.98
43741;BME280;29352;48.708;9.290;2023-02-12T09:38:56;99849.84;;;0.91;71.51
43741;BME280;29352;48.708;9.290;2023-02-12T09:41:45;99863.31;;;0.99;71.47
43741;BME280;29352;48.708;9.290;2023-02-12T09:44:36;99854.53;;;1.61;69.89
43741;BME280;29352;48.708;9.290;2023-02-12T09:47:45;99850.97;;;1.86;69.11
43741;BME280;29352;48.708;9.290;2023-02-12T09:50:36;99844.13;;;2.19;68.45
43741;BME280;29352;48.708;9.290;2023-02-12T09:53:20;99850.28;;;1.71;68.59
43741;BME280;29352;48.708;9.290;2023-02-12T09:55:49;99863.47;;;1.22;71.00
43741;BME280;29352;48.708;9.290;2023-02-12T09:58:28;99847.78;;;1.57;68.73
43741;BME280;29352;48.708;9.290;2023-02-12T10:01:14;99859.91;;;1.10;70.03
43741;BME280;29352;48.708;9.290;2023-02-12T10:03:42;99863.09;;;1.76;68.62
43741;BME280;29352;48.708;9.290;2023-02-12T10:09:00;99862.25;;;-0.02;73.57
43741;BME280;29352;48.708;9.290;2023-02-12T10:17:11;99858.72;;;1.27;71.56
43741;BME280;29352;48.708;9.290;2023-02-12T10:20:28;99862.97;;;1.04;71.80
43741;BME280;29352;48.708;9.290;2023-02-12T10:28:43;99860.63;;;1.25;70.34
43741;BME280;29352;48.708;9.290;2023-02-12T10:31:23;99860.81;;;-0.20;74.15
43741;BME280;29352;48.708;9.290;2023-02-12T10:33:54;99862.50;;;0.20;73.43
43741;BME280;29352;48.708;9.290;2023-02-12T10:36:46;99851.00;;;0.48;73.75
43741;BME280;29352;48.708;9.290;2023-02-12T10:39:41;99858.75;;;1.01;72.05
43741;BME280;29352;48.708;9.290;2023-02-12T10:44:59;99844.59;;;0.78;73.20
43741;BME280;29352;48.708;9.290;2023-02-12T10:47:25;99838.63;;;0.11;75.88
43741;BME280;29352;48.708;9.290;2023-02-12T10:49:59;99834.03;;;1.04;72.56
43741;BME280;29352;48.708;9.290;2023-02-12T10:52:45;99852.69;;;1.37;71.13
43741;BME280;29352;48.708;9.290;2023-02-12T10:55:26;99833.41;;;1.00;71.69
43741;BME280;29352;48.708;9.290;2023-02-12T10:57:55;99843.94;;;1.13;71.71
43741;BME280;29352;48.708;9.290;2023-02-12T11:03:19;99838.81;;;0.99;72.67
43741;BME280;29352;48.708;9.290;2023-02-12T11:05:46;99833.38;;;1.50;70.79
43741;BME280;29352;48.708;9.290;2023-02-12T11:13:46;99828.38;;;1.10;71.92
43741;BME280;29352;48.708;9.290;2023-02-12T11:16:31;99822.50;;;0.93;73.05
43741;BME280;29352;48.708;9.290;2023-02-12T11:19:07;99823.06;;;1.23;71.81
43741;BME280;29352;48.708;9.290;2023-02-12T11:21:44;99827.94;;;1.16;72.29
43741;BME280;29352;48.708;9.290;2023-02-12T11:29:37;99835.09;;;1.14;72.36
43741;BME280;29352;48.708;9.290;2023-02-12T11:32:05;99822.91;;;0.87;72.92
43741;BME280;29352;48.708;9.290;2023-02-12T11:34:33;99826.06;;;1.42;71.42
43741;BME280;29352;48.708;9.290;2023-02-12T11:37:00;99828.50;;;1.32;71.81
43741;BME280;29352;48.708;9.290;2023-02-12T11:39:38;99827.41;;;1.11;72.70
43741;BME280;29352;48.708;9.290;2023-02-12T11:42:18;99824.41;;;0.91;72.92
43741;BME280;29352;48.708;9.290;2023-02-12T11:44:56;99823.28;;;1.19;72.83
43741;BME280;29352;48.708;9.290;2023-02-12T11:47:28;99827.84;;;1.41;72.49
43741;BME280;29352;48.708;9.290;2023-02-12T11:50:08;99825.41;;;1.14;72.95
43741;BME280;29352;48.708;9.290;2023-02-12T11:52:52;99821.38;;;1.22;73.19
43741;BME280;29352;48.708;9.290;2023-02-12T11:55:28;99812.75;;;0.44;75.74
43741;BME280;29352;48.708;9.290;2023-02-12T11:58:19;99803.91;;;-0.20;76.42
43741;BME280;29352;48.708;9.290;2023-02-12T12:00:52;99812.81;;;0.05;76.45
43741;BME280;29352;48.708;9.290;2023-02-12T12:03:35;99803.31;;;1.17;73.31
43741;BME280;29352;48.708;9.290;2023-02-12T12:09:03;99799.16;;;0.89;74.07
43741;BME280;29352;48.708;9.290;2023-02-12T12:11:43;99800.22;;;0.86;74.07
43741;BME280;29352;48.708;9.290;2023-02-12T12:15:03;99792.50;;;1.57;72.11
43741;BME280;29352;48.708;9.290;2023-02-12T12:17:49;99792.84;;;1.76;71.63
43741;BME280;29352;48.708;9.290;2023-02-12T12:20:46;99799.97;;;1.63;71.82
43741;BME280;29352;48.708;9.290;2023-02-12T12:23:29;99796.53;;;1.98;70.38
43741;BME280;29352;48.708;9.290;2023-02-12T12:26:20;99789.75;;;1.82;70.36
43741;BME280;29352;48.708;9.290;2023-02-12T12:31:39;99795.22;;;1.44;71.17
43741;BME280;29352;48.708;9.290;2023-02-12T12:34:15;99796.78;;;0.47;75.41
43741;BME280;29352;48.708;9.290;2023-02-12T12:37:31;99796.59;;;0.51;74.43
43741;BME280;29352;48.708;9.290;2023-02-12T12:40:41;99799.97;;;1.63;72.80
43741;BME280;29352;48.708;9.290;2023-02-12T12:43:49;99788.13;;;2.50;69.57
43741;BME280;29352;48.708;9.290;2023-02-12T12:46:38;99786.00;;;1.98;70.73
43741;BME280;29352;48.708;9.290;2023-02-12T12:55:39;99776.41;;;0.26;74.78
43741;BME280;29352;48.708;9.290;2023-02-12T12:59:06;99777.50;;;1.22;72.60
43741;BME280;29352;48.708;9.290;2023-02-12T13:11:11;99763.78;;;2.13;70.17
43741;BME280;29352;48.708;9.290;2023-02-12T13:13:49;99759.56;;;1.64;71.93
43741;BME280;29352;48.708;9.290;2023-02-12T13:16:41;99766.59;;;1.15;72.87
43741;BME280;29352;48.708;9.290;2023-02-12T13:19:26;99757.00;;;1.62;72.53
43741;BME280;29352;48.708;9.290;2023-02-12T13:22:24;99742.25;;;2.30;70.34
43741;BME280;29352;48.708;9.290;2023-02-12T13:25:18;99746.41;;;1.75;71.48
43741;BME280;29352;48.708;9.290;2023-02-12T13:28:02;99741.91;;;2.69;69.04
43741;BME280;29352;48.708;9.290;2023-02-12T13:30:47;99749.25;;;1.37;72.48
43741;BME280;29352;48.708;9.290;2023-02-12T13:33:27;99745.13;;;2.50;70.16
43741;BME280;29352;48.708;9.290;2023-02-12T13:36:05;99732.91;;;2.26;71.10
43741;BME280;29352;48.708;9.290;2023-02-12T13:38:39;99734.44;;;2.06;71.63
43741;BME280;29352;48.708;9.290;2023-02-12T13:41:38;99733.13;;;2.57;68.82
43741;BME280;29352;48.708;9.290;2023-02-12T13:44:25;99743.69;;;2.46;70.08
43741;BME280;29352;48.708;9.290;2023-02-12T13:56:06;99733.06;;;1.54;71.59
43741;BME280;29352;48.708;9.290;2023-02-12T13:58:48;99727.50;;;2.28;70.35
43741;BME280;29352;48.708;9.290;2023-02-12T14:01:38;99732.13;;;1.66;70.21
43741;BME280;29352;48.708;9.290;2023-02-12T14:07:14;99717.78;;;1.11;72.75
43741;BME280;29352;48.708;9.290;2023-02-12T14:09:44;99720.91;;;2.00;70.65
43741;BME280;29352;48.708;9.290;2023-02-12T14:12:34;99722.69;;;1.64;71.17
43741;BME280;29352;48.708;9.290;2023-02-12T14:27:44;99698.66;;;2.49;68.68
43741;BME280;29352;48.708;9.290;2023-02-12T14:37:50;99696.09;;;1.91;70.71
43741;BME280;29352;48.708;9.290;2023-02-12T14:43:01;99699.97;;;0.67;74.29
43741;BME280;29352;48.708;9.290;2023-02-12T14:45:46;99689.81;;;1.81;71.49
43741;BME280;29352;48.708;9.290;2023-02-12T14:51:45;99692.19;;;1.02;73.55
43741;BME280;29352;48.708;9.290;2023-02-12T14:57:22;99688.56;;;1.98;71.60
43741;BME280;29352;48.708;9.290;2023-02-12T15:02:25;99694.78;;;1.50;72.73
43741;BME280;29352;48.708;9.290;2023-02-12T15:04:57;99686.06;;;1.96;70.62
43741;BME280;29352;48.708;9.290;2023-02-12T15:07:35;99689.75;;;2.05;70.87
43741;BME280;29352;48.708;9.290;2023-02-12T15:10:14;99694.88;;;1.84;71.50
43741;BME280;29352;48.708;9.290;2023-02-12T15:13:01;99692.66;;;2.13;70.64
43741;BME280;29352;48.708;9.290;2023-02-12T15:15:54;99695.22;;;1.79;71.32
43741;BME280;29352;48.708;9.290;2023-02-12T15:21:22;99681.66;;;1.26;72.33
43741;BME280;29352;48.708;9.290;2023-02-12T15:24:12;99687.22;;;1.57;72.23
43741;BME280;29352;48.708;9.290;2023-02-12T15:26:50;99680.84;;;1.83;71.69
43741;BME280;29352;48.708;9.290;2023-02-12T15:29:30;99684.38;;;1.60;71.72
43741;BME280;29352;48.708;9.290;2023-02-12T15:32:03;99683.59;;;1.11;73.73
43741;BME280;29352;48.708;9.290;2023-02-12T15:34:33;99695.09;;;0.74;74.83
43741;BME280;29352;48.708;9.290;2023-02-12T15:37:06;99688.91;;;1.47;72.77
43741;BME280;29352;48.708;9.290;2023-02-12T15:39:42;99679.53;;;1.42;72.48
43741;BME280;29352;48.708;9.290;2023-02-12T15:42:25;99682.41;;;1.39;72.30
43741;BME280;29352;48.708;9.290;2023-02-12T15:47:38;99680.38;;;1.78;71.61
43741;BME280;29352;48.708;9.290;2023-02-12T15:50:06;99673.53;;;1.05;73.19
43741;BME280;29352;48.708;9.290;2023-02-12T15:52:40;99678.94;;;0.91;74.50
43741;BME280;29352;48.708;9.290;2023-02-12T15:55:15;99682.56;;;0.53;75.09